Time;durP1;ratioP1;P1;durP2;ratioP2;P2;SDS_P1;SDS_P2;PMS_P1;PMS_P2;Temp;Humidity;BMP_temperature;BMP_pressure;BME280_temperature;BME280_humidity;BME280_pressure;Samples;Min_cycle;Max_cycle;Signal;HPM_P1;HPM_P2
2021/01/14 00:02:07;;;;;;;1.25;0.60;;;;;;;26.50;27.85;96260.75;4965140;28;20335;-70
2021/01/14 00:04:32;;;;;;;0.80;0.55;;;;;;;26.48;27.82;96270.53;4964198;28;20133;-70
2021/01/14 00:07:02;;;;;;;3.80;1.10;;;;;;;26.48;27.66;96262.66;4970450;28;20061;-71
2021/01/14 00:09:27;;;;;;;1.80;0.60;;;;;;;26.48;27.67;96273.16;4981528;28;20048;-70
2021/01/14 00:11:53;;;;;;;1.92;0.55;;;;;;;26.47;27.73;96266.25;4967278;28;20041;-70
2021/01/14 00:14:18;;;;;;;1.15;0.57;;;;;;;26.45;27.67;96279.47;4965346;28;20494;-71
2021/01/14 00:16:48;;;;;;;1.95;0.60;;;;;;;26.40;27.75;96275.44;4980453;28;20561;-70
2021/01/14 00:19:14;;;;;;;1.10;0.60;;;;;;;26.45;27.52;96303.13;5010135;28;20048;-71
2021/01/14 00:21:44;;;;;;;1.55;0.40;;;;;;;26.44;27.38;96306.69;4969626;28;20045;-71
2021/01/14 00:24:13;;;;;;;1.33;0.60;;;;;;;26.45;26.54;96297.88;4986080;28;20103;-70
2021/01/14 00:26:40;;;;;;;2.38;0.95;;;;;;;26.44;27.44;96297.97;4977198;28;20045;-69
2021/01/14 00:29:06;;;;;;;0.57;0.45;;;;;;;26.40;27.55;96302.56;4977714;28;20514;-70
2021/01/14 00:31:31;;;;;;;1.58;0.60;;;;;;;26.37;27.74;96296.66;4976126;28;20072;-70
2021/01/14 00:33:57;;;;;;;0.47;0.32;;;;;;;26.38;27.66;96299.19;4969718;28;20049;-69
2021/01/14 00:36:31;;;;;;;0.40;0.40;;;;;;;26.36;27.82;96290.56;4965600;28;20040;-70
2021/01/14 00:38:58;;;;;;;1.40;0.60;;;;;;;26.36;28.01;96287.94;4999282;28;20544;-72
2021/01/14 00:41:23;;;;;;;2.67;0.50;;;;;;;26.35;28.31;96289.72;4968517;28;20048;-69
2021/01/14 00:43:49;;;;;;;1.05;0.47;;;;;;;26.37;28.03;96280.88;4985869;28;21693;-70
2021/01/14 00:46:18;;;;;;;0.95;0.47;;;;;;;26.37;28.25;96280.88;4967290;28;20045;-70
2021/01/14 00:48:44;;;;;;;0.55;0.35;;;;;;;26.37;28.38;96270.38;4978814;28;20129;-71
2021/01/14 00:51:09;;;;;;;2.47;0.50;;;;;;;26.37;28.48;96255.47;4965764;28;20048;-70
2021/01/14 00:53:42;;;;;;;0.32;0.32;;;;;;;26.37;28.02;96249.38;4987909;28;20087;-71
2021/01/14 00:56:08;;;;;;;0.40;0.40;;;;;;;26.37;28.09;96265.13;4966006;28;20045;-69
2021/01/14 00:58:41;;;;;;;0.65;0.50;;;;;;;26.37;28.02;96273.84;4986985;28;20029;-70
2021/01/14 01:01:06;;;;;;;2.08;0.40;;;;;;;26.38;27.99;96303.63;4982651;28;20049;-71
2021/01/14 01:03:32;;;;;;;2.47;0.88;;;;;;;26.37;27.63;96307.16;4968223;28;20399;-70
2021/01/14 01:06:05;;;;;;;0.52;0.22;;;;;;;26.35;27.95;96313.34;4984671;28;20115;-71
2021/01/14 01:08:39;;;;;;;1.27;0.60;;;;;;;26.32;27.94;96315.34;5000766;28;20021;-70
2021/01/14 01:11:09;;;;;;;2.67;0.50;;;;;;;26.34;27.84;96303.78;4979935;28;20749;-71
2021/01/14 01:13:39;;;;;;;0.55;0.38;;;;;;;26.32;27.97;96316.16;5013819;28;20501;-70
2021/01/14 01:16:14;;;;;;;1.40;0.52;;;;;;;26.33;27.80;96325.75;4992818;28;20094;-71
2021/01/14 01:18:39;;;;;;;2.55;0.45;;;;;;;26.33;27.95;96322.28;4995643;28;20341;-70
2021/01/14 01:21:05;;;;;;;0.57;0.40;;;;;;;26.33;27.87;96310.00;4962737;28;20601;-70
2021/01/14 01:23:30;;;;;;;2.08;0.40;;;;;;;26.29;27.90;96305.88;4967906;28;20040;-70
2021/01/14 01:25:56;;;;;;;2.40;0.32;;;;;;;26.33;28.14;96317.88;4968210;28;20103;-70
2021/01/14 01:28:29;;;;;;;1.02;0.30;;;;;;;26.33;28.09;96312.63;4972636;28;20128;-71
2021/01/14 01:30:58;;;;;;;1.65;0.50;;;;;;;26.32;28.07;96316.16;4999201;28;20120;-71
2021/01/14 01:33:35;;;;;;;0.40;0.40;;;;;;;26.31;28.04;96327.63;4978110;28;20102;-71
2021/01/14 01:36:00;;;;;;;4.82;0.30;;;;;;;26.30;27.94;96309.31;4996768;28;20041;-71
2021/01/14 01:38:29;;;;;;;0.68;0.30;;;;;;;26.29;28.12;96311.13;4972811;28;20492;-70
2021/01/14 01:40:55;;;;;;;1.30;0.43;;;;;;;26.28;28.16;96319.94;4985585;28;20041;-71
2021/01/14 01:43:21;;;;;;;1.75;0.55;;;;;;;26.28;28.13;96319.09;4985307;28;20919;-70
2021/01/14 01:45:47;;;;;;;0.85;0.47;;;;;;;26.28;28.12;96324.34;4994658;28;20041;-70
2021/01/14 01:48:13;;;;;;;1.58;0.50;;;;;;;26.27;28.29;96328.75;4966866;28;20410;-70
2021/01/14 01:50:38;;;;;;;1.73;0.60;;;;;;;26.27;28.09;96331.38;4980281;28;20065;-70
2021/01/14 01:53:03;;;;;;;0.38;0.38;;;;;;;26.27;28.06;96323.50;4969182;28;20499;-70
2021/01/14 01:55:29;;;;;;;1.50;0.50;;;;;;;26.28;28.21;96317.28;4969084;28;20042;-71
2021/01/14 01:57:54;;;;;;;0.45;0.30;;;;;;;26.27;28.08;96323.50;4971542;28;20687;-71
2021/01/14 02:00:23;;;;;;;0.55;0.28;;;;;;;26.28;28.22;96325.19;4984252;28;20083;-70
2021/01/14 02:02:48;;;;;;;0.60;0.47;;;;;;;26.26;28.01;96326.22;4998693;28;20199;-70
2021/01/14 02:05:17;;;;;;;0.88;0.40;;;;;;;26.27;28.11;96318.25;4965099;28;20495;-71
2021/01/14 02:08:06;;;;;;;0.50;0.28;;;;;;;26.27;28.34;96317.41;5002133;28;20025;-70
2021/01/14 02:10:34;;;;;;;1.05;0.50;;;;;;;26.21;28.39;96310.72;4990008;28;20080;-71
2021/01/14 02:13:22;;;;;;;0.93;0.40;;;;;;;26.25;28.22;96330.63;4968073;28;20502;-71
2021/01/14 02:15:48;;;;;;;0.28;0.20;;;;;;;26.27;28.34;96355.00;4982336;28;20072;-70
2021/01/14 02:18:19;;;;;;;0.98;0.40;;;;;;;26.28;28.30;96343.56;4961706;28;20049;-71
2021/01/14 02:20:49;;;;;;;0.30;0.30;;;;;;;26.28;28.29;96334.84;4965977;28;20033;-70
2021/01/14 02:23:18;;;;;;;0.40;0.30;;;;;;;26.28;28.41;96322.53;4969959;28;20048;-69
2021/01/14 02:25:55;;;;;;;0.47;0.22;;;;;;;26.27;28.26;96339.25;4980424;28;20049;-70
2021/01/14 02:28:24;;;;;;;0.40;0.30;;;;;;;26.27;28.33;96344.50;4993406;28;20117;-70
2021/01/14 02:30:53;;;;;;;0.80;0.43;;;;;;;26.26;28.33;96348.09;4989862;28;20568;-70
2021/01/14 02:33:23;;;;;;;0.70;0.40;;;;;;;26.25;28.31;96341.13;4967258;28;20041;-71
2021/01/14 02:35:48;;;;;;;1.20;0.38;;;;;;;26.23;28.32;96335.94;4974261;28;20091;-70
2021/01/14 02:38:21;;;;;;;0.50;0.20;;;;;;;26.24;28.64;96355.19;4966480;28;20037;-70
2021/01/14 02:40:50;;;;;;;2.58;0.20;;;;;;;26.22;28.54;96362.31;4993017;28;20037;-71
2021/01/14 02:43:16;;;;;;;0.50;0.28;;;;;;;26.22;28.49;96368.41;4982991;28;20049;-71
2021/01/14 02:45:45;;;;;;;0.28;0.28;;;;;;;26.22;28.37;96375.44;4984663;28;20454;-70
2021/01/14 02:48:12;;;;;;;0.38;0.28;;;;;;;26.22;28.33;96370.19;4978373;28;20049;-71
2021/01/14 02:50:38;;;;;;;0.70;0.35;;;;;;;26.23;28.45;96358.75;4974090;28;20041;-71
2021/01/14 02:53:11;;;;;;;0.45;0.30;;;;;;;26.21;28.36;96358.81;4980095;28;20514;-70
2021/01/14 02:55:36;;;;;;;0.95;0.40;;;;;;;26.22;28.35;96359.69;4980965;28;20048;-71
2021/01/14 02:58:09;;;;;;;0.30;0.30;;;;;;;26.22;28.33;96362.31;4979108;28;20041;-71
2021/01/14 03:00:34;;;;;;;0.52;0.32;;;;;;;26.23;28.45;96350.84;4983268;28;20751;-70
2021/01/14 03:02:59;;;;;;;2.28;0.22;;;;;;;26.23;28.54;96348.22;4954739;28;20038;-75
2021/01/14 03:05:29;;;;;;;0.68;0.40;;;;;;;26.22;28.36;96362.31;4974899;28;20049;-70
2021/01/14 03:08:03;;;;;;;1.50;0.40;;;;;;;26.22;28.51;96352.66;5002801;28;20049;-71
2021/01/14 03:10:43;;;;;;;1.15;0.30;;;;;;;26.23;28.47;96356.13;4992129;28;20045;-71
2021/01/14 03:13:13;;;;;;;0.30;0.30;;;;;;;26.22;28.31;96354.44;4998054;28;20044;-71
2021/01/14 03:15:46;;;;;;;1.10;0.40;;;;;;;26.23;28.39;96369.25;4997080;28;20211;-70
2021/01/14 03:18:16;;;;;;;0.38;0.30;;;;;;;26.21;28.34;96366.72;4979083;28;20056;-70
2021/01/14 03:20:41;;;;;;;1.25;0.55;;;;;;;26.21;28.36;96363.25;4985492;28;20029;-71
2021/01/14 03:23:09;;;;;;;0.88;0.30;;;;;;;26.21;28.28;96365.88;4980627;28;20047;-69
2021/01/14 03:25:34;;;;;;;0.57;0.20;;;;;;;26.18;28.25;96368.69;4978568;28;20658;-70
2021/01/14 03:28:03;;;;;;;0.20;0.20;;;;;;;26.18;28.25;96366.91;4966509;28;20037;-71
2021/01/14 03:30:29;;;;;;;0.55;0.30;;;;;;;26.18;28.51;96371.31;4985216;28;21088;-70
2021/01/14 03:32:56;;;;;;;0.40;0.30;;;;;;;26.18;28.50;96372.16;4959815;28;20033;-70
2021/01/14 03:35:22;;;;;;;0.20;0.20;;;;;;;26.15;28.30;96361.84;4985501;28;20045;-69
2021/01/14 03:37:47;;;;;;;0.25;0.22;;;;;;;26.20;28.26;96377.34;4965740;28;20613;-69
2021/01/14 03:40:17;;;;;;;1.10;0.32;;;;;;;26.16;28.25;96354.81;4977812;28;20034;-70
2021/01/14 03:42:42;;;;;;;0.30;0.20;;;;;;;26.18;28.46;96361.66;4971680;28;20033;-69
2021/01/14 03:45:08;;;;;;;0.38;0.20;;;;;;;26.17;28.46;96359.13;4966055;28;20059;-69
2021/01/14 03:47:34;;;;;;;0.68;0.20;;;;;;;26.17;28.35;96369.63;4969330;28;20040;-70
2021/01/14 03:50:00;;;;;;;0.88;0.20;;;;;;;26.16;28.42;96379.28;4969762;28;20041;-69
2021/01/14 03:52:38;;;;;;;1.13;0.30;;;;;;;26.14;28.53;96385.56;4970153;28;20693;-71
2021/01/14 03:55:04;;;;;;;0.40;0.20;;;;;;;26.14;28.33;96386.44;4999275;28;20060;-70
2021/01/14 03:57:32;;;;;;;0.85;0.30;;;;;;;26.17;28.48;96395.91;4967546;28;20049;-70
2021/01/14 03:59:58;;;;;;;0.30;0.20;;;;;;;26.14;28.36;96382.94;4983355;28;20116;-70
2021/01/14 04:02:23;;;;;;;1.77;0.20;;;;;;;26.16;28.50;96394.22;4963976;28;20715;-70
2021/01/14 04:04:52;;;;;;;0.55;0.30;;;;;;;26.16;28.28;96388.97;4967786;28;21592;-69
2021/01/14 04:07:22;;;;;;;0.52;0.30;;;;;;;26.16;28.47;96386.34;4977617;28;20037;-69
2021/01/14 04:09:47;;;;;;;0.47;0.20;;;;;;;26.13;28.32;96383.88;4987573;28;20045;-69
2021/01/14 04:12:13;;;;;;;0.63;0.30;;;;;;;26.15;28.44;96395.13;4970619;28;20696;-70
2021/01/14 04:14:38;;;;;;;0.20;0.20;;;;;;;26.10;28.36;96380.50;4969364;28;20137;-70
2021/01/14 04:17:04;;;;;;;0.22;0.22;;;;;;;26.09;28.47;96378.81;4967831;28;20045;-69
2021/01/14 04:19:29;;;;;;;0.43;0.15;;;;;;;26.13;28.55;96390.00;4974441;28;20140;-70
2021/01/14 04:22:02;;;;;;;0.95;0.30;;;;;;;26.09;28.40;96384.06;4966044;28;20033;-70
2021/01/14 04:24:36;;;;;;;0.55;0.30;;;;;;;26.12;28.50;96401.41;4985528;28;20037;-69
2021/01/14 04:27:06;;;;;;;0.60;0.35;;;;;;;26.12;28.42;96400.59;5004930;28;20641;-70
2021/01/14 04:29:32;;;;;;;0.25;0.20;;;;;;;26.12;28.49;96413.72;4984172;28;20037;-70
2021/01/14 04:31:58;;;;;;;1.10;0.50;;;;;;;26.12;28.53;96424.22;4983769;28;20072;-69
2021/01/14 04:34:30;;;;;;;0.20;0.20;;;;;;;26.07;28.40;96425.34;4972169;28;20040;-70
2021/01/14 04:37:02;;;;;;;0.52;0.30;;;;;;;26.09;28.55;96418.19;4979753;28;20026;-70
2021/01/14 04:39:31;;;;;;;0.20;0.20;;;;;;;26.08;28.55;96403.38;4988695;28;20037;-70
2021/01/14 04:41:58;;;;;;;1.50;0.20;;;;;;;26.08;28.37;96413.91;4964024;28;20117;-70
2021/01/14 04:44:27;;;;;;;0.45;0.20;;;;;;;26.06;28.45;96415.78;4970151;28;20037;-69
2021/01/14 04:47:06;;;;;;;0.20;0.20;;;;;;;26.07;28.48;96414.84;4967843;28;20051;-68
2021/01/14 04:49:32;;;;;;;0.10;0.10;;;;;;;26.06;28.63;96413.16;4998220;28;20072;-69
2021/01/14 04:51:59;;;;;;;0.65;0.30;;;;;;;26.07;28.58;96406.09;4968886;28;20068;-70
2021/01/14 04:54:25;;;;;;;0.65;0.20;;;;;;;26.05;28.53;96400.94;4984042;28;20033;-70
2021/01/14 04:56:53;;;;;;;0.77;0.30;;;;;;;26.01;28.55;96404.69;4967348;28;20040;-69
2021/01/14 04:59:19;;;;;;;0.98;0.20;;;;;;;26.04;28.72;96401.88;4979326;28;20048;-70
2021/01/14 05:01:45;;;;;;;0.10;0.10;;;;;;;26.03;28.50;96405.47;4971257;28;20041;-68
2021/01/14 05:04:10;;;;;;;1.23;0.50;;;;;;;26.03;28.60;96413.34;4961542;28;20041;-69
2021/01/14 05:06:43;;;;;;;0.73;0.30;;;;;;;26.05;28.73;96408.00;4986841;28;20036;-70
2021/01/14 05:09:08;;;;;;;0.43;0.30;;;;;;;26.03;28.59;96410.72;4969011;28;20329;-69
2021/01/14 05:11:44;;;;;;;4.55;0.28;;;;;;;26.02;28.44;96414.28;4985141;28;20041;-70
2021/01/14 05:14:10;;;;;;;0.43;0.10;;;;;;;26.05;28.64;96413.25;4985834;28;20041;-70
2021/01/14 05:16:40;;;;;;;0.13;0.13;;;;;;;26.00;28.45;96410.88;4963323;28;20424;-70
2021/01/14 05:19:05;;;;;;;0.20;0.20;;;;;;;26.04;28.61;96428.13;4996948;28;20095;-69
2021/01/14 05:21:34;;;;;;;0.22;0.15;;;;;;;26.04;28.43;96428.13;4968712;28;20049;-69
2021/01/14 05:24:15;;;;;;;0.47;0.20;;;;;;;26.04;28.54;96430.75;4967805;28;20079;-69
2021/01/14 05:26:42;;;;;;;0.30;0.20;;;;;;;26.04;28.54;96437.78;4984116;28;20037;-70
2021/01/14 05:29:12;;;;;;;0.47;0.25;;;;;;;26.04;28.51;96438.66;4968417;28;20521;-68
2021/01/14 05:31:38;;;;;;;0.05;0.05;;;;;;;26.05;28.50;96442.94;4985850;28;20029;-70
2021/01/14 05:34:07;;;;;;;0.20;0.20;;;;;;;26.07;28.67;96458.63;4962989;28;20572;-69
2021/01/14 05:37:03;;;;;;;0.30;0.30;;;;;;;26.09;28.40;96451.50;4979212;28;20041;-69
2021/01/14 05:39:29;;;;;;;0.60;0.20;;;;;;;26.09;28.61;96441.84;4980011;28;20096;-69
2021/01/14 05:41:54;;;;;;;0.50;0.20;;;;;;;26.13;28.55;96452.16;4985440;28;20128;-70
2021/01/14 05:44:34;;;;;;;0.32;0.20;;;;;;;26.13;28.49;96468.78;4981572;28;20048;-70
2021/01/14 05:47:17;;;;;;;0.38;0.20;;;;;;;26.10;28.49;96464.53;4982071;28;20073;-69
2021/01/14 05:50:00;;;;;;;0.63;0.30;;;;;;;26.14;28.64;96467.84;4991398;28;20038;-68
2021/01/14 05:52:27;;;;;;;0.82;0.13;;;;;;;26.15;28.64;96466.03;4984331;28;20042;-70
2021/01/14 05:55:08;;;;;;;0.30;0.10;;;;;;;26.15;28.71;96464.25;4979124;28;20099;-70
2021/01/14 05:57:39;;;;;;;0.63;0.30;;;;;;;25.99;28.65;96451.22;4991153;28;20041;-69
2021/01/14 06:00:12;;;;;;;0.20;0.20;;;;;;;26.05;28.45;96458.72;4985382;28;20037;-69
2021/01/14 06:02:42;;;;;;;0.20;0.20;;;;;;;26.17;28.57;96474.69;4963608;28;20053;-69
2021/01/14 06:05:25;;;;;;;0.10;0.10;;;;;;;26.14;28.45;96472.22;4981681;28;20041;-68
2021/01/14 06:07:50;;;;;;;0.20;0.20;;;;;;;26.15;28.66;96473.91;4985035;28;20044;-70
2021/01/14 06:10:16;;;;;;;0.22;0.10;;;;;;;26.14;28.58;96480.97;4961237;28;20041;-69
2021/01/14 06:12:48;;;;;;;1.05;0.30;;;;;;;26.16;28.46;96488.75;4970979;28;20510;-69
2021/01/14 06:15:16;;;;;;;0.65;0.20;;;;;;;26.16;28.38;96484.34;4983173;28;20407;-69
2021/01/14 06:17:42;;;;;;;0.52;0.30;;;;;;;26.16;28.65;96480.88;4982086;28;20563;-68
2021/01/14 06:20:08;;;;;;;0.60;0.20;;;;;;;26.17;28.47;96474.69;4967207;28;20092;-69
2021/01/14 06:22:36;;;;;;;0.90;0.20;;;;;;;26.18;28.42;96481.63;4969881;28;20041;-67
2021/01/14 06:25:06;;;;;;;0.45;0.20;;;;;;;26.19;28.48;96483.31;5000993;28;20071;-70
2021/01/14 06:27:32;;;;;;;0.45;0.30;;;;;;;26.18;28.28;96494.75;4980464;28;20589;-68
2021/01/14 06:30:07;;;;;;;0.28;0.28;;;;;;;26.16;28.47;96494.84;4985690;28;20049;-69
2021/01/14 06:32:41;;;;;;;0.82;0.30;;;;;;;26.17;28.49;96511.44;4980404;28;20451;-69
2021/01/14 06:35:18;;;;;;;0.40;0.30;;;;;;;26.15;28.41;96508.91;4986383;28;20108;-68
2021/01/14 06:37:43;;;;;;;0.30;0.20;;;;;;;26.15;28.44;96503.66;4965746;28;20044;-70
2021/01/14 06:40:09;;;;;;;0.28;0.28;;;;;;;26.15;28.38;96508.06;4968847;28;20033;-69
2021/01/14 06:42:35;;;;;;;1.27;0.60;;;;;;;26.14;27.65;96506.38;4969338;28;20044;-69
2021/01/14 06:45:04;;;;;;;2.10;0.80;;;;;;;26.12;27.68;96514.34;4977250;28;20045;-69
2021/01/14 06:47:45;;;;;;;0.70;0.50;;;;;;;26.08;28.07;96516.31;4999768;28;20099;-69
2021/01/14 06:50:37;;;;;;;0.93;0.40;;;;;;;26.07;28.46;96519.88;5000393;28;20041;-70
2021/01/14 06:53:09;;;;;;;0.30;0.30;;;;;;;26.06;28.54;96518.19;4994970;28;20414;-68
2021/01/14 06:55:36;;;;;;;0.52;0.30;;;;;;;26.06;28.45;96520.81;4991464;28;20128;-68
2021/01/14 06:58:08;;;;;;;0.28;0.28;;;;;;;26.06;28.55;96505.06;4979538;28;20045;-70
2021/01/14 07:00:39;;;;;;;1.38;0.40;;;;;;;26.09;28.49;96518.00;4980223;28;20045;-71
2021/01/14 07:03:16;;;;;;;2.33;0.47;;;;;;;26.12;28.50;96524.00;4977354;28;21958;-68
2021/01/14 07:05:44;;;;;;;1.13;0.45;;;;;;;26.13;28.39;96517.81;4999911;28;20133;-71
2021/01/14 07:08:51;;;;;;;1.08;0.40;;;;;;;26.15;28.34;96518.56;5018688;28;20099;-71
2021/01/14 07:11:18;;;;;;;0.35;0.30;;;;;;;26.16;28.48;96507.13;4973771;28;20045;-69
2021/01/14 07:13:51;;;;;;;0.40;0.25;;;;;;;26.15;28.39;96505.44;4979003;28;20057;-69
2021/01/14 07:16:18;;;;;;;1.38;0.50;;;;;;;26.15;28.26;96505.44;4959254;28;20076;-69
2021/01/14 07:18:44;;;;;;;1.25;0.50;;;;;;;26.14;28.47;96507.22;4964967;28;20140;-68
2021/01/14 07:21:34;;;;;;;0.45;0.30;;;;;;;26.15;28.44;96502.81;4966453;28;20037;-70
2021/01/14 07:24:18;;;;;;;0.50;0.40;;;;;;;26.15;28.34;96503.66;4994789;28;20124;-69
2021/01/14 07:26:44;;;;;;;1.25;0.50;;;;;;;26.16;28.33;96510.59;4991065;28;20049;-70
2021/01/14 07:29:11;;;;;;;0.40;0.40;;;;;;;26.16;28.31;96510.59;4982542;28;20041;-69
2021/01/14 07:31:47;;;;;;;0.77;0.30;;;;;;;26.13;28.22;96512.56;4983516;28;20095;-70
2021/01/14 07:34:40;;;;;;;0.20;0.20;;;;;;;26.18;28.33;96528.88;4983904;28;20049;-70
2021/01/14 07:37:13;;;;;;;0.93;0.30;;;;;;;26.18;28.36;96539.41;4964210;28;20040;-69
2021/01/14 07:39:58;;;;;;;1.08;0.38;;;;;;;26.18;28.50;96547.28;4978771;28;20264;-69
2021/01/14 07:42:30;;;;;;;1.38;0.55;;;;;;;26.16;28.35;96546.53;4967014;28;20882;-69
2021/01/14 07:45:03;;;;;;;1.13;0.43;;;;;;;26.16;28.35;96541.28;4993768;28;20068;-70
2021/01/14 07:47:36;;;;;;;0.57;0.30;;;;;;;26.15;28.40;96550.94;4966578;28;20049;-67
2021/01/14 07:50:27;;;;;;;0.45;0.22;;;;;;;26.16;28.50;96559.66;4979914;28;20457;-70
2021/01/14 07:52:56;;;;;;;1.55;0.52;;;;;;;26.16;27.37;96557.03;4983046;28;20030;-70
2021/01/14 07:55:29;;;;;;;7.75;0.50;;;;;;;26.14;28.14;96554.50;4992533;28;20128;-70
2021/01/14 07:58:19;;;;;;;2.20;0.60;;;;;;;26.16;27.99;96564.91;4993505;28;20060;-70
2021/01/14 08:00:56;;;;;;;3.67;0.50;;;;;;;26.17;28.18;96574.47;5008531;28;20635;-70
2021/01/14 08:03:34;;;;;;;0.70;0.32;;;;;;;26.16;28.08;96562.28;4979140;28;20037;-70
2021/01/14 08:06:00;;;;;;;9.05;0.40;;;;;;;26.15;27.82;96550.06;4972294;28;20056;-70
2021/01/14 08:08:28;;;;;;;1.17;0.40;;;;;;;26.15;28.04;96550.94;4993369;28;20128;-68
2021/01/14 08:11:19;;;;;;;7.68;0.90;;;;;;;26.14;23.83;96553.63;4993196;28;20033;-69
2021/01/14 08:14:03;;;;;;;3.22;0.80;;;;;;;26.08;23.46;96553.06;4983401;28;20577;-70
2021/01/14 08:16:30;;;;;;;3.47;0.90;;;;;;;26.04;23.75;96575.19;4994968;28;20049;-70
2021/01/14 08:19:07;;;;;;;4.43;1.08;;;;;;;25.94;23.87;96574.84;4978975;28;20033;-70
2021/01/14 08:21:33;;;;;;;3.20;0.73;;;;;;;25.85;23.94;96569.31;5009985;28;20041;-70
2021/01/14 08:23:58;;;;;;;1.00;0.60;;;;;;;25.74;23.93;96578.63;4977512;28;20057;-70
2021/01/14 08:26:24;;;;;;;0.88;0.57;;;;;;;25.62;23.98;96579.31;4957541;28;20831;-70
2021/01/14 08:29:00;;;;;;;2.58;0.73;;;;;;;25.50;23.67;96579.03;4966563;28;20152;-70
2021/01/14 08:31:42;;;;;;;1.80;1.00;;;;;;;25.40;23.78;96580.47;4965008;28;20132;-70
2021/01/14 08:34:07;;;;;;;2.30;1.23;;;;;;;25.28;23.93;96577.59;4997389;28;20037;-69
2021/01/14 08:36:42;;;;;;;1.55;1.00;;;;;;;25.17;23.86;96595.69;4979245;28;20076;-69
2021/01/14 08:39:08;;;;;;;2.42;1.40;;;;;;;25.08;23.65;96596.16;4980060;28;20033;-70
2021/01/14 08:41:37;;;;;;;4.55;1.20;;;;;;;25.00;24.20;96594.81;4966110;28;20049;-70
2021/01/14 08:44:03;;;;;;;1.95;1.05;;;;;;;24.94;24.26;96597.75;4963998;28;20099;-71
2021/01/14 08:46:41;;;;;;;2.33;0.85;;;;;;;24.93;27.49;96596.06;4983980;28;20034;-70
2021/01/14 08:49:13;;;;;;;3.22;0.73;;;;;;;24.97;28.09;96596.75;4981069;28;20053;-71
2021/01/14 08:51:44;;;;;;;1.92;0.63;;;;;;;25.04;28.45;96603.34;4961938;28;20038;-71
2021/01/14 08:54:10;;;;;;;2.70;0.90;;;;;;;25.13;28.52;96612.53;4995829;28;20115;-71
2021/01/14 08:56:39;;;;;;;3.90;0.80;;;;;;;25.22;28.49;96613.78;4985850;28;20046;-70
2021/01/14 08:59:16;;;;;;;3.83;0.70;;;;;;;25.28;28.55;96619.56;4967972;28;20067;-70
2021/01/14 09:01:47;;;;;;;1.20;0.60;;;;;;;25.34;28.39;96617.53;4980825;28;20041;-71
2021/01/14 09:04:13;;;;;;;1.35;0.60;;;;;;;25.40;28.59;96622.47;4998470;28;20429;-69
2021/01/14 09:06:39;;;;;;;1.50;0.70;;;;;;;25.45;28.49;96625.66;4963392;28;20634;-69
2021/01/14 09:09:14;;;;;;;2.28;0.63;;;;;;;25.52;28.67;96623.56;4974342;28;20037;-70
2021/01/14 09:11:40;;;;;;;2.15;0.60;;;;;;;25.56;28.33;96617.25;4976720;28;20452;-71
2021/01/14 09:14:13;;;;;;;1.20;0.70;;;;;;;25.61;28.48;96614.34;4965846;28;20046;-71
2021/01/14 09:16:40;;;;;;;0.82;0.60;;;;;;;25.65;28.63;96618.50;4961334;28;20133;-71
2021/01/14 09:19:18;;;;;;;0.63;0.38;;;;;;;25.70;28.54;96624.34;4961247;28;20033;-70
2021/01/14 09:21:43;;;;;;;3.33;0.52;;;;;;;25.73;28.72;96634.66;4991220;28;20580;-71
2021/01/14 09:24:09;;;;;;;0.77;0.50;;;;;;;25.76;28.50;96646.78;4960407;28;20051;-71
2021/01/14 09:26:38;;;;;;;1.20;0.60;;;;;;;25.78;28.52;96643.13;4976239;28;20052;-70
2021/01/14 09:29:05;;;;;;;1.98;0.57;;;;;;;25.80;28.53;96641.28;4959854;28;20045;-71
2021/01/14 09:31:33;;;;;;;0.93;0.50;;;;;;;25.83;28.56;96645.50;4973073;28;20037;-70
2021/01/14 09:33:59;;;;;;;8.50;1.98;;;;;;;25.63;19.59;96649.25;4962777;28;20051;-70
2021/01/14 09:36:29;;;;;;;3.10;1.75;;;;;;;25.08;18.62;96648.59;4989750;28;20068;-69
2021/01/14 09:39:05;;;;;;;5.93;2.03;;;;;;;24.38;19.44;96666.91;5001592;28;20029;-72
2021/01/14 09:41:31;;;;;;;9.07;1.98;;;;;;;24.05;20.63;96657.09;4973361;28;20219;-72
2021/01/14 09:43:57;;;;;;;11.70;2.08;;;;;;;24.01;21.95;96668.63;4978128;28;20041;-72
2021/01/14 09:46:24;;;;;;;4.22;1.67;;;;;;;24.07;23.31;96677.97;4989756;28;20965;-72
2021/01/14 09:48:54;;;;;;;4.93;1.67;;;;;;;24.16;23.86;96690.66;4974571;28;20029;-72
2021/01/14 09:51:20;;;;;;;3.85;1.45;;;;;;;24.25;24.01;96687.59;4973975;28;20049;-71
2021/01/14 09:53:48;;;;;;;2.60;1.40;;;;;;;24.37;24.70;96695.78;4971011;28;20557;-72
2021/01/14 09:56:18;;;;;;;2.38;1.23;;;;;;;24.42;24.87;96687.69;4961586;28;20933;-72
2021/01/14 09:58:45;;;;;;;2.33;1.27;;;;;;;24.56;25.17;96700.13;4971820;28;20438;-72
2021/01/14 10:01:12;;;;;;;2.78;1.40;;;;;;;24.65;24.99;96702.28;4981098;28;20037;-72
2021/01/14 10:03:47;;;;;;;8.85;1.60;;;;;;;24.72;25.04;96703.69;4984050;28;20098;-72
2021/01/14 10:06:14;;;;;;;2.15;1.45;;;;;;;24.72;25.20;96698.44;4991256;28;20128;-72
2021/01/14 10:08:45;;;;;;;2.70;1.15;;;;;;;24.55;25.77;96708.91;4965879;28;20041;-75
2021/01/14 10:11:11;;;;;;;3.03;1.40;;;;;;;24.38;26.09;96714.06;4988667;28;20041;-74
2021/01/14 10:13:50;;;;;;;3.90;1.05;;;;;;;24.30;26.52;96715.31;4984605;28;20080;-76
2021/01/14 10:16:18;;;;;;;4.18;1.63;;;;;;;24.35;26.70;96705.47;4967132;28;20107;-75
2021/01/14 10:18:44;;;;;;;2.72;1.50;;;;;;;24.47;26.82;96706.63;4958809;28;20034;-74
2021/01/14 10:21:09;;;;;;;4.05;1.83;;;;;;;24.57;26.15;96705.28;4976172;28;20514;-74
2021/01/14 10:23:40;;;;;;;5.43;2.38;;;;;;;24.64;26.44;96692.72;4963908;28;20090;-74
2021/01/14 10:26:05;;;;;;;8.20;2.25;;;;;;;24.74;26.97;96688.72;4979114;28;20048;-73
2021/01/14 10:28:41;;;;;;;15.38;2.03;;;;;;;24.87;26.76;96677.63;4962846;28;20049;-74
2021/01/14 10:31:07;;;;;;;8.02;2.42;;;;;;;24.97;26.79;96676.22;4970779;28;20045;-74
2021/01/14 10:33:36;;;;;;;11.07;2.70;;;;;;;25.06;26.70;96682.78;4968458;28;20044;-74
2021/01/14 10:36:07;;;;;;;8.13;2.90;;;;;;;25.16;26.53;96685.75;4989401;28;21619;-73
2021/01/14 10:38:32;;;;;;;5.72;2.08;;;;;;;25.26;26.62;96687.00;4985365;28;20037;-74
2021/01/14 10:41:04;;;;;;;8.93;2.70;;;;;;;25.36;26.64;96689.94;4983578;28;20044;-74
2021/01/14 10:43:33;;;;;;;7.75;2.85;;;;;;;25.45;26.39;96693.88;4975910;28;20037;-73
2021/01/14 10:45:59;;;;;;;6.65;1.75;;;;;;;25.51;26.54;96701.41;4984204;28;20057;-74
2021/01/14 10:48:30;;;;;;;7.47;2.63;;;;;;;25.56;26.35;96702.03;4968776;28;20034;-73
2021/01/14 10:50:57;;;;;;;3.50;1.95;;;;;;;25.63;26.47;96704.34;4985332;28;20044;-73
2021/01/14 10:53:33;;;;;;;5.38;1.98;;;;;;;25.66;26.63;96707.66;4968627;28;20517;-72
2021/01/14 10:56:06;;;;;;;3.45;1.63;;;;;;;25.69;26.47;96702.25;4995237;28;20437;-73
2021/01/14 10:58:32;;;;;;;5.40;1.98;;;;;;;25.72;26.51;96701.22;4966683;28;20037;-71
2021/01/14 11:00:57;;;;;;;6.30;2.25;;;;;;;25.73;26.77;96700.28;4992703;28;20436;-72
2021/01/14 11:03:23;;;;;;;4.72;1.88;;;;;;;25.74;26.69;96704.59;4978179;28;20033;-71
2021/01/14 11:05:58;;;;;;;6.05;2.10;;;;;;;25.75;26.86;96705.47;4959028;28;20045;-72
2021/01/14 11:08:44;;;;;;;6.43;2.03;;;;;;;25.76;26.96;96702.75;4963922;28;20064;-72
2021/01/14 11:11:19;;;;;;;3.92;1.90;;;;;;;25.76;27.04;96694.88;4978461;28;20132;-73
2021/01/14 11:13:49;;;;;;;5.13;1.95;;;;;;;25.77;27.06;96704.44;4977724;28;20069;-72
2021/01/14 11:16:16;;;;;;;3.42;1.73;;;;;;;25.80;27.06;96703.44;4983194;28;20454;-70
2021/01/14 11:18:43;;;;;;;4.25;1.95;;;;;;;25.82;26.97;96699.78;4961336;28;20121;-71
2021/01/14 11:21:09;;;;;;;4.60;1.80;;;;;;;25.83;26.84;96704.09;4957404;28;20033;-71
2021/01/14 11:23:34;;;;;;;3.78;1.80;;;;;;;25.85;26.82;96700.56;4954958;28;20132;-71
2021/01/14 11:26:02;;;;;;;4.35;1.90;;;;;;;25.87;26.93;96698.69;4969490;28;20708;-71
2021/01/14 11:28:29;;;;;;;5.95;1.83;;;;;;;25.88;27.23;96689.88;4975659;28;20049;-72
2021/01/14 11:30:59;;;;;;;5.22;2.15;;;;;;;25.89;27.36;96691.59;4973314;28;20045;-71
2021/01/14 11:33:25;;;;;;;4.15;1.38;;;;;;;25.83;27.64;96693.59;4972765;28;20522;-76
2021/01/14 11:35:51;;;;;;;5.22;2.00;;;;;;;25.59;28.24;96695.78;4959544;28;20042;-74
2021/01/14 11:38:18;;;;;;;5.93;1.70;;;;;;;25.37;28.61;96707.41;4960563;28;20076;-74
2021/01/14 11:40:47;;;;;;;3.22;1.73;;;;;;;25.25;29.02;96705.44;4979466;28;20281;-76
2021/01/14 11:43:12;;;;;;;3.70;1.67;;;;;;;25.22;29.13;96703.81;4981404;28;20136;-75
2021/01/14 11:45:39;;;;;;;5.20;1.85;;;;;;;25.24;29.04;96695.88;4964627;28;20525;-75
2021/01/14 11:48:05;;;;;;;3.88;1.80;;;;;;;25.31;29.28;96700.72;4976125;28;20067;-75